sensor_id;sensor_type;location;lat;lon;timestamp;P1;durP1;ratioP1;P2;durP2;ratioP2
1078;SDS011;528;47.872;11.478;2022-07-21T00:15:34;12.83;;;11.73;;
1078;SDS011;528;47.872;11.478;2022-07-21T00:33:49;13.50;;;12.20;;
1078;SDS011;528;47.872;11.478;2022-07-21T00:36:47;13.90;;;12.70;;
1078;SDS011;528;47.872;11.478;2022-07-21T00:39:23;13.30;;;12.10;;
1078;SDS011;528;47.872;11.478;2022-07-21T00:41:56;13.07;;;11.87;;
1078;SDS011;528;47.872;11.478;2022-07-21T00:44:28;12.53;;;11.43;;
1078;SDS011;528;47.872;11.478;2022-07-21T00:47:02;12.87;;;11.77;;
1078;SDS011;528;47.872;11.478;2022-07-21T00:49:33;12.97;;;11.80;;
1078;SDS011;528;47.872;11.478;2022-07-21T00:52:09;13.43;;;12.00;;
1078;SDS011;528;47.872;11.478;2022-07-21T00:54:38;13.67;;;12.60;;
1078;SDS011;528;47.872;11.478;2022-07-21T00:57:06;13.13;;;11.80;;
1078;SDS011;528;47.872;11.478;2022-07-21T00:59:35;13.10;;;12.00;;
1078;SDS011;528;47.872;11.478;2022-07-21T01:02:06;12.53;;;11.43;;
1078;SDS011;528;47.872;11.478;2022-07-21T01:04:35;12.80;;;11.80;;
1078;SDS011;528;47.872;11.478;2022-07-21T01:07:05;13.10;;;11.90;;
1078;SDS011;528;47.872;11.478;2022-07-21T01:09:35;12.10;;;11.10;;
1078;SDS011;528;47.872;11.478;2022-07-21T01:12:18;12.77;;;11.57;;
1078;SDS011;528;47.872;11.478;2022-07-21T01:14:56;13.47;;;12.17;;
1078;SDS011;528;47.872;11.478;2022-07-21T01:17:27;13.40;;;12.10;;
1078;SDS011;528;47.872;11.478;2022-07-21T01:19:57;13.03;;;11.93;;
1078;SDS011;528;47.872;11.478;2022-07-21T01:22:34;13.40;;;12.20;;
1078;SDS011;528;47.872;11.478;2022-07-21T01:25:04;13.73;;;12.53;;
1078;SDS011;528;47.872;11.478;2022-07-21T01:27:32;14.23;;;12.97;;
1078;SDS011;528;47.872;11.478;2022-07-21T01:29:59;14.97;;;13.67;;
1078;SDS011;528;47.872;11.478;2022-07-21T01:32:27;14.47;;;13.17;;
1078;SDS011;528;47.872;11.478;2022-07-21T01:34:55;15.07;;;13.70;;
1078;SDS011;528;47.872;11.478;2022-07-21T01:37:23;13.83;;;12.50;;
1078;SDS011;528;47.872;11.478;2022-07-21T01:39:56;13.10;;;12.10;;
1078;SDS011;528;47.872;11.478;2022-07-21T01:42:41;14.00;;;12.70;;
1078;SDS011;528;47.872;11.478;2022-07-21T01:45:09;13.93;;;12.70;;
1078;SDS011;528;47.872;11.478;2022-07-21T01:47:36;14.10;;;12.97;;
1078;SDS011;528;47.872;11.478;2022-07-21T01:50:07;13.50;;;12.40;;
1078;SDS011;528;47.872;11.478;2022-07-21T01:52:34;14.17;;;12.87;;
1078;SDS011;528;47.872;11.478;2022-07-21T01:55:04;14.07;;;12.77;;
1078;SDS011;528;47.872;11.478;2022-07-21T01:57:32;14.03;;;12.70;;
1078;SDS011;528;47.872;11.478;2022-07-21T01:59:59;14.50;;;13.10;;
1078;SDS011;528;47.872;11.478;2022-07-21T02:02:27;13.73;;;12.40;;
1078;SDS011;528;47.872;11.478;2022-07-21T02:04:55;14.40;;;13.10;;
1078;SDS011;528;47.872;11.478;2022-07-21T02:07:22;14.80;;;13.50;;
1078;SDS011;528;47.872;11.478;2022-07-21T02:09:50;13.43;;;12.17;;
1078;SDS011;528;47.872;11.478;2022-07-21T02:12:19;13.63;;;12.53;;
1078;SDS011;528;47.872;11.478;2022-07-21T02:14:46;14.80;;;13.40;;
1078;SDS011;528;47.872;11.478;2022-07-21T02:17:13;16.23;;;14.73;;
1078;SDS011;528;47.872;11.478;2022-07-21T02:19:41;15.67;;;14.27;;
1078;SDS011;528;47.872;11.478;2022-07-21T02:22:09;16.67;;;15.10;;
1078;SDS011;528;47.872;11.478;2022-07-21T02:24:36;16.70;;;15.20;;
1078;SDS011;528;47.872;11.478;2022-07-21T02:27:05;16.70;;;15.20;;
1078;SDS011;528;47.872;11.478;2022-07-21T02:29:38;16.17;;;14.70;;
1078;SDS011;528;47.872;11.478;2022-07-21T02:32:06;16.13;;;14.73;;
1078;SDS011;528;47.872;11.478;2022-07-21T02:34:33;16.00;;;14.70;;
1078;SDS011;528;47.872;11.478;2022-07-21T02:37:05;16.43;;;14.80;;
1078;SDS011;528;47.872;11.478;2022-07-21T02:50:47;14.43;;;13.23;;
1078;SDS011;528;47.872;11.478;2022-07-21T02:53:15;14.07;;;12.87;;
1078;SDS011;528;47.872;11.478;2022-07-21T02:55:44;14.07;;;12.77;;
1078;SDS011;528;47.872;11.478;2022-07-21T02:58:13;14.47;;;13.17;;
1078;SDS011;528;47.872;11.478;2022-07-21T03:00:44;14.30;;;13.00;;
1078;SDS011;528;47.872;11.478;2022-07-21T03:03:14;14.60;;;13.20;;
1078;SDS011;528;47.872;11.478;2022-07-21T03:05:42;14.37;;;13.03;;
1078;SDS011;528;47.872;11.478;2022-07-21T03:08:11;14.23;;;13.00;;
1078;SDS011;528;47.872;11.478;2022-07-21T03:10:39;14.40;;;13.20;;
1078;SDS011;528;47.872;11.478;2022-07-21T03:13:08;14.07;;;12.63;;
1078;SDS011;528;47.872;11.478;2022-07-21T03:15:36;14.23;;;12.97;;
1078;SDS011;528;47.872;11.478;2022-07-21T03:18:06;13.77;;;12.57;;
1078;SDS011;528;47.872;11.478;2022-07-21T03:20:34;15.80;;;14.30;;
1078;SDS011;528;47.872;11.478;2022-07-21T03:23:02;15.80;;;14.50;;
1078;SDS011;528;47.872;11.478;2022-07-21T03:25:31;14.20;;;13.07;;
1078;SDS011;528;47.872;11.478;2022-07-21T03:27:59;15.77;;;14.37;;
1078;SDS011;528;47.872;11.478;2022-07-21T03:30:30;15.50;;;13.90;;
1078;SDS011;528;47.872;11.478;2022-07-21T03:32:58;14.27;;;13.07;;
1078;SDS011;528;47.872;11.478;2022-07-21T03:35:26;14.33;;;13.13;;
1078;SDS011;528;47.872;11.478;2022-07-21T03:37:54;14.90;;;13.50;;
1078;SDS011;528;47.872;11.478;2022-07-21T03:40:23;15.53;;;14.07;;
1078;SDS011;528;47.872;11.478;2022-07-21T03:42:55;14.87;;;13.53;;
1078;SDS011;528;47.872;11.478;2022-07-21T03:45:26;15.60;;;14.33;;
1078;SDS011;528;47.872;11.478;2022-07-21T03:47:55;15.97;;;14.47;;
1078;SDS011;528;47.872;11.478;2022-07-21T03:50:23;16.33;;;14.73;;
1078;SDS011;528;47.872;11.478;2022-07-21T03:52:51;16.80;;;15.13;;
1078;SDS011;528;47.872;11.478;2022-07-21T03:55:19;16.33;;;14.83;;
1078;SDS011;528;47.872;11.478;2022-07-21T03:57:48;16.07;;;14.73;;
1078;SDS011;528;47.872;11.478;2022-07-21T04:00:18;17.23;;;15.60;;
1078;SDS011;528;47.872;11.478;2022-07-21T04:02:47;17.50;;;16.00;;
1078;SDS011;528;47.872;11.478;2022-07-21T04:05:15;18.00;;;16.40;;
1078;SDS011;528;47.872;11.478;2022-07-21T04:07:45;17.67;;;16.07;;
1078;SDS011;528;47.872;11.478;2022-07-21T04:10:14;18.13;;;16.50;;
1078;SDS011;528;47.872;11.478;2022-07-21T04:12:42;18.13;;;16.63;;
1078;SDS011;528;47.872;11.478;2022-07-21T04:15:11;18.37;;;16.70;;
1078;SDS011;528;47.872;11.478;2022-07-21T04:17:40;18.10;;;16.30;;
1078;SDS011;528;47.872;11.478;2022-07-21T04:20:08;17.40;;;15.80;;
1078;SDS011;528;47.872;11.478;2022-07-21T04:22:37;18.70;;;17.00;;
1078;SDS011;528;47.872;11.478;2022-07-21T04:25:07;18.27;;;16.67;;
1078;SDS011;528;47.872;11.478;2022-07-21T04:27:35;18.70;;;17.00;;
1078;SDS011;528;47.872;11.478;2022-07-21T04:30:04;19.03;;;17.33;;
1078;SDS011;528;47.872;11.478;2022-07-21T04:32:33;18.87;;;17.17;;
1078;SDS011;528;47.872;11.478;2022-07-21T04:35:03;19.70;;;17.90;;
1078;SDS011;528;47.872;11.478;2022-07-21T04:37:31;18.80;;;17.00;;
1078;SDS011;528;47.872;11.478;2022-07-21T04:39:59;20.47;;;18.67;;
1078;SDS011;528;47.872;11.478;2022-07-21T04:42:29;18.80;;;17.00;;
1078;SDS011;528;47.872;11.478;2022-07-21T04:44:57;17.53;;;16.03;;
1078;SDS011;528;47.872;11.478;2022-07-21T04:47:25;17.70;;;16.17;;
1078;SDS011;528;47.872;11.478;2022-07-21T04:49:52;19.33;;;17.50;;
1078;SDS011;528;47.872;11.478;2022-07-21T04:52:21;19.90;;;18.10;;
1078;SDS011;528;47.872;11.478;2022-07-21T04:54:49;20.53;;;18.53;;
1078;SDS011;528;47.872;11.478;2022-07-21T04:57:16;18.63;;;16.90;;
1078;SDS011;528;47.872;11.478;2022-07-21T04:59:44;18.50;;;16.80;;
1078;SDS011;528;47.872;11.478;2022-07-21T05:02:11;19.43;;;17.73;;
1078;SDS011;528;47.872;11.478;2022-07-21T05:04:39;20.20;;;18.40;;
1078;SDS011;528;47.872;11.478;2022-07-21T05:07:08;19.97;;;18.30;;
1078;SDS011;528;47.872;11.478;2022-07-21T05:09:37;21.20;;;19.10;;
1078;SDS011;528;47.872;11.478;2022-07-21T05:12:05;19.70;;;18.00;;
1078;SDS011;528;47.872;11.478;2022-07-21T05:14:34;20.23;;;18.30;;
1078;SDS011;528;47.872;11.478;2022-07-21T05:17:07;19.83;;;18.13;;
1078;SDS011;528;47.872;11.478;2022-07-21T05:19:36;19.50;;;17.80;;
1078;SDS011;528;47.872;11.478;2022-07-21T05:22:07;21.13;;;19.33;;
1078;SDS011;528;47.872;11.478;2022-07-21T05:24:35;21.07;;;19.27;;
1078;SDS011;528;47.872;11.478;2022-07-21T05:27:05;19.80;;;17.93;;
1078;SDS011;528;47.872;11.478;2022-07-21T05:29:33;21.23;;;19.33;;
1078;SDS011;528;47.872;11.478;2022-07-21T05:32:02;20.83;;;18.93;;
1078;SDS011;528;47.872;11.478;2022-07-21T05:34:33;20.50;;;18.70;;
1078;SDS011;528;47.872;11.478;2022-07-21T05:37:05;20.40;;;18.63;;
1078;SDS011;528;47.872;11.478;2022-07-21T05:39:34;19.70;;;17.90;;
1078;SDS011;528;47.872;11.478;2022-07-21T05:42:14;21.07;;;19.27;;
1078;SDS011;528;47.872;11.478;2022-07-21T05:44:44;19.53;;;17.77;;
1078;SDS011;528;47.872;11.478;2022-07-21T05:47:12;18.47;;;16.77;;
1078;SDS011;528;47.872;11.478;2022-07-21T05:49:40;21.10;;;19.00;;
1078;SDS011;528;47.872;11.478;2022-07-21T05:52:21;19.83;;;18.13;;
1078;SDS011;528;47.872;11.478;2022-07-21T05:54:49;20.00;;;18.20;;
1078;SDS011;528;47.872;11.478;2022-07-21T05:57:24;19.40;;;17.60;;
1078;SDS011;528;47.872;11.478;2022-07-21T05:59:55;20.20;;;18.60;;
1078;SDS011;528;47.872;11.478;2022-07-21T06:02:24;19.07;;;17.37;;
1078;SDS011;528;47.872;11.478;2022-07-21T06:04:56;19.90;;;18.30;;
1078;SDS011;528;47.872;11.478;2022-07-21T06:07:43;18.60;;;17.00;;
1078;SDS011;528;47.872;11.478;2022-07-21T06:10:17;20.30;;;18.50;;
1078;SDS011;528;47.872;11.478;2022-07-21T06:13:04;20.10;;;18.40;;
1078;SDS011;528;47.872;11.478;2022-07-21T06:15:37;20.07;;;18.37;;
1078;SDS011;528;47.872;11.478;2022-07-21T06:18:26;20.20;;;18.50;;
1078;SDS011;528;47.872;11.478;2022-07-21T06:21:05;19.73;;;18.13;;
1078;SDS011;528;47.872;11.478;2022-07-21T06:23:43;20.43;;;18.53;;
1078;SDS011;528;47.872;11.478;2022-07-21T06:26:26;19.93;;;18.23;;
1078;SDS011;528;47.872;11.478;2022-07-21T06:29:10;20.03;;;18.17;;
1078;SDS011;528;47.872;11.478;2022-07-21T06:31:43;19.70;;;18.10;;
1078;SDS011;528;47.872;11.478;2022-07-21T06:34:31;19.73;;;18.03;;
1078;SDS011;528;47.872;11.478;2022-07-21T06:37:42;20.23;;;18.63;;
1078;SDS011;528;47.872;11.478;2022-07-21T06:40:43;19.07;;;17.37;;
1078;SDS011;528;47.872;11.478;2022-07-21T06:44:06;20.33;;;18.63;;
1078;SDS011;528;47.872;11.478;2022-07-21T06:47:07;19.53;;;17.93;;
1078;SDS011;528;47.872;11.478;2022-07-21T06:49:47;21.43;;;19.60;;
1078;SDS011;528;47.872;11.478;2022-07-21T06:52:15;19.40;;;17.77;;
1078;SDS011;528;47.872;11.478;2022-07-21T06:54:55;21.03;;;19.07;;
1078;SDS011;528;47.872;11.478;2022-07-21T06:57:29;19.73;;;18.10;;
1078;SDS011;528;47.872;11.478;2022-07-21T07:00:02;18.83;;;17.33;;
1078;SDS011;528;47.872;11.478;2022-07-21T07:02:32;18.20;;;16.70;;
1078;SDS011;528;47.872;11.478;2022-07-21T07:05:06;19.40;;;17.70;;
1078;SDS011;528;47.872;11.478;2022-07-21T07:07:34;20.50;;;18.70;;
1078;SDS011;528;47.872;11.478;2022-07-21T07:10:04;18.67;;;17.07;;
1078;SDS011;528;47.872;11.478;2022-07-21T07:12:46;19.17;;;17.57;;
1078;SDS011;528;47.872;11.478;2022-07-21T07:15:24;19.80;;;18.00;;
1078;SDS011;528;47.872;11.478;2022-07-21T07:18:09;18.93;;;17.33;;
1078;SDS011;528;47.872;11.478;2022-07-21T07:20:37;20.57;;;18.87;;
1078;SDS011;528;47.872;11.478;2022-07-21T07:23:05;19.40;;;17.70;;
1078;SDS011;528;47.872;11.478;2022-07-21T07:25:33;20.43;;;18.53;;
1078;SDS011;528;47.872;11.478;2022-07-21T07:28:00;18.70;;;17.10;;
1078;SDS011;528;47.872;11.478;2022-07-21T07:30:31;20.13;;;18.40;;
1078;SDS011;528;47.872;11.478;2022-07-21T07:33:01;20.50;;;18.70;;
1078;SDS011;528;47.872;11.478;2022-07-21T07:35:32;19.60;;;17.80;;
1078;SDS011;528;47.872;11.478;2022-07-21T07:41:36;19.43;;;17.73;;
1078;SDS011;528;47.872;11.478;2022-07-21T07:44:04;19.77;;;17.77;;
1078;SDS011;528;47.872;11.478;2022-07-21T07:46:32;20.00;;;18.23;;
1078;SDS011;528;47.872;11.478;2022-07-21T07:49:04;20.40;;;18.70;;
1078;SDS011;528;47.872;11.478;2022-07-21T07:51:31;20.53;;;18.70;;
1078;SDS011;528;47.872;11.478;2022-07-21T07:53:58;20.13;;;18.10;;
1078;SDS011;528;47.872;11.478;2022-07-21T07:56:28;21.40;;;19.40;;
1078;SDS011;528;47.872;11.478;2022-07-21T07:58:55;20.57;;;18.87;;
1078;SDS011;528;47.872;11.478;2022-07-21T08:01:22;20.73;;;19.00;;
1078;SDS011;528;47.872;11.478;2022-07-21T08:03:49;20.60;;;18.80;;
1078;SDS011;528;47.872;11.478;2022-07-21T08:06:18;20.73;;;18.90;;
1078;SDS011;528;47.872;11.478;2022-07-21T08:08:45;20.70;;;19.00;;
1078;SDS011;528;47.872;11.478;2022-07-21T08:11:12;21.60;;;19.67;;
1078;SDS011;528;47.872;11.478;2022-07-21T08:13:40;20.50;;;18.80;;
1078;SDS011;528;47.872;11.478;2022-07-21T08:16:07;20.00;;;18.30;;
1078;SDS011;528;47.872;11.478;2022-07-21T08:18:37;21.17;;;19.27;;
1078;SDS011;528;47.872;11.478;2022-07-21T08:21:04;20.47;;;18.70;;
1078;SDS011;528;47.872;11.478;2022-07-21T08:23:33;21.40;;;19.60;;
1078;SDS011;528;47.872;11.478;2022-07-21T08:26:00;20.37;;;18.63;;
1078;SDS011;528;47.872;11.478;2022-07-21T08:28:27;20.53;;;18.73;;
1078;SDS011;528;47.872;11.478;2022-07-21T08:30:54;21.30;;;19.40;;
1078;SDS011;528;47.872;11.478;2022-07-21T08:33:21;21.10;;;19.30;;
1078;SDS011;528;47.872;11.478;2022-07-21T08:35:48;19.93;;;18.30;;
1078;SDS011;528;47.872;11.478;2022-07-21T08:38:15;20.03;;;18.23;;
1078;SDS011;528;47.872;11.478;2022-07-21T08:40:45;22.60;;;20.60;;
1078;SDS011;528;47.872;11.478;2022-07-21T08:43:12;22.20;;;20.30;;
1078;SDS011;528;47.872;11.478;2022-07-21T08:45:40;21.53;;;19.63;;
1078;SDS011;528;47.872;11.478;2022-07-21T08:48:07;20.80;;;19.00;;
1078;SDS011;528;47.872;11.478;2022-07-21T08:50:40;20.80;;;19.07;;
1078;SDS011;528;47.872;11.478;2022-07-21T08:53:11;20.63;;;18.90;;
1078;SDS011;528;47.872;11.478;2022-07-21T08:55:41;21.00;;;19.00;;
1078;SDS011;528;47.872;11.478;2022-07-21T08:58:15;19.73;;;18.03;;
1078;SDS011;528;47.872;11.478;2022-07-21T09:01:04;20.20;;;18.40;;
1078;SDS011;528;47.872;11.478;2022-07-21T09:04:01;20.30;;;18.50;;
1078;SDS011;528;47.872;11.478;2022-07-21T09:06:51;20.20;;;18.40;;
1078;SDS011;528;47.872;11.478;2022-07-21T09:09:36;20.47;;;18.60;;
1078;SDS011;528;47.872;11.478;2022-07-21T09:12:06;19.60;;;17.90;;
1078;SDS011;528;47.872;11.478;2022-07-21T09:14:41;19.23;;;17.53;;
1078;SDS011;528;47.872;11.478;2022-07-21T09:17:11;19.33;;;17.60;;
1078;SDS011;528;47.872;11.478;2022-07-21T09:19:43;19.40;;;17.43;;
1078;SDS011;528;47.872;11.478;2022-07-21T09:22:22;19.47;;;17.80;;
1078;SDS011;528;47.872;11.478;2022-07-21T09:24:52;18.67;;;17.07;;
1078;SDS011;528;47.872;11.478;2022-07-21T09:27:22;18.80;;;17.10;;
1078;SDS011;528;47.872;11.478;2022-07-21T09:29:57;19.50;;;17.70;;
1078;SDS011;528;47.872;11.478;2022-07-21T09:32:38;19.27;;;17.57;;
1078;SDS011;528;47.872;11.478;2022-07-21T09:35:07;18.87;;;17.10;;
1078;SDS011;528;47.872;11.478;2022-07-21T09:37:54;19.43;;;17.80;;
1078;SDS011;528;47.872;11.478;2022-07-21T09:41:03;20.37;;;18.43;;
1078;SDS011;528;47.872;11.478;2022-07-21T09:43:53;21.10;;;18.67;;
1078;SDS011;528;47.872;11.478;2022-07-21T09:49:48;19.80;;;18.07;;
1078;SDS011;528;47.872;11.478;2022-07-21T10:42:16;18.33;;;16.63;;
1078;SDS011;528;47.872;11.478;2022-07-21T10:44:48;18.03;;;16.53;;
1078;SDS011;528;47.872;11.478;2022-07-21T10:47:16;18.20;;;16.60;;
1078;SDS011;528;47.872;11.478;2022-07-21T10:49:47;18.50;;;16.80;;
1078;SDS011;528;47.872;11.478;2022-07-21T10:55:23;19.17;;;17.37;;
1078;SDS011;528;47.872;11.478;2022-07-21T11:00:50;18.40;;;16.60;;
1078;SDS011;528;47.872;11.478;2022-07-21T11:03:19;20.10;;;17.30;;
1078;SDS011;528;47.872;11.478;2022-07-21T11:08:40;18.73;;;17.07;;
1078;SDS011;528;47.872;11.478;2022-07-21T11:11:09;19.50;;;17.40;;
1078;SDS011;528;47.872;11.478;2022-07-21T11:13:58;19.30;;;17.50;;
1078;SDS011;528;47.872;11.478;2022-07-21T11:16:57;19.27;;;17.67;;
1078;SDS011;528;47.872;11.478;2022-07-21T11:25:42;20.00;;;18.03;;
1078;SDS011;528;47.872;11.478;2022-07-21T11:28:17;20.73;;;18.83;;
1078;SDS011;528;47.872;11.478;2022-07-21T11:30:49;19.27;;;17.47;;
1078;SDS011;528;47.872;11.478;2022-07-21T11:33:34;19.43;;;17.43;;
1078;SDS011;528;47.872;11.478;2022-07-21T11:36:04;18.17;;;16.57;;
1078;SDS011;528;47.872;11.478;2022-07-21T11:38:39;20.57;;;18.53;;
1078;SDS011;528;47.872;11.478;2022-07-21T11:41:30;19.77;;;17.80;;
1078;SDS011;528;47.872;11.478;2022-07-21T11:44:01;19.07;;;17.17;;
1078;SDS011;528;47.872;11.478;2022-07-21T11:46:49;19.73;;;17.93;;
1078;SDS011;528;47.872;11.478;2022-07-21T11:49:18;20.10;;;18.30;;
1078;SDS011;528;47.872;11.478;2022-07-21T11:51:59;20.37;;;18.40;;
1078;SDS011;528;47.872;11.478;2022-07-21T11:54:50;17.87;;;16.20;;
1078;SDS011;528;47.872;11.478;2022-07-21T11:57:24;19.93;;;18.10;;
1078;SDS011;528;47.872;11.478;2022-07-21T12:00:00;19.80;;;18.00;;
1078;SDS011;528;47.872;11.478;2022-07-21T12:02:44;20.00;;;18.30;;
1078;SDS011;528;47.872;11.478;2022-07-21T12:08:59;18.40;;;16.80;;
1078;SDS011;528;47.872;11.478;2022-07-21T12:11:33;20.17;;;18.47;;
1078;SDS011;528;47.872;11.478;2022-07-21T12:14:02;20.63;;;18.80;;
1078;SDS011;528;47.872;11.478;2022-07-21T12:16:31;21.17;;;19.17;;
1078;SDS011;528;47.872;11.478;2022-07-21T12:19:14;22.63;;;20.53;;
1078;SDS011;528;47.872;11.478;2022-07-21T12:21:49;20.20;;;18.37;;
1078;SDS011;528;47.872;11.478;2022-07-21T12:24:20;21.27;;;19.27;;
1078;SDS011;528;47.872;11.478;2022-07-21T12:26:49;19.60;;;17.80;;
1078;SDS011;528;47.872;11.478;2022-07-21T12:29:24;21.87;;;19.60;;
1078;SDS011;528;47.872;11.478;2022-07-21T12:31:58;21.00;;;19.20;;
1078;SDS011;528;47.872;11.478;2022-07-21T12:34:33;21.30;;;19.47;;
1078;SDS011;528;47.872;11.478;2022-07-21T12:37:16;20.60;;;18.60;;
1078;SDS011;528;47.872;11.478;2022-07-21T12:39:59;21.03;;;19.23;;
1078;SDS011;528;47.872;11.478;2022-07-21T12:42:29;20.53;;;18.73;;
1078;SDS011;528;47.872;11.478;2022-07-21T12:45:12;21.57;;;19.67;;
1078;SDS011;528;47.872;11.478;2022-07-21T12:47:42;22.23;;;20.20;;
1078;SDS011;528;47.872;11.478;2022-07-21T12:50:32;20.70;;;18.93;;
1078;SDS011;528;47.872;11.478;2022-07-21T12:53:01;20.93;;;18.93;;
1078;SDS011;528;47.872;11.478;2022-07-21T12:55:30;22.80;;;20.83;;
1078;SDS011;528;47.872;11.478;2022-07-21T12:58:03;23.17;;;21.07;;
1078;SDS011;528;47.872;11.478;2022-07-21T13:00:34;22.03;;;20.07;;
1078;SDS011;528;47.872;11.478;2022-07-21T13:03:02;22.33;;;20.33;;
1078;SDS011;528;47.872;11.478;2022-07-21T13:05:32;21.17;;;19.27;;
1078;SDS011;528;47.872;11.478;2022-07-21T13:08:00;20.37;;;18.57;;
1078;SDS011;528;47.872;11.478;2022-07-21T13:10:30;21.47;;;19.57;;
1078;SDS011;528;47.872;11.478;2022-07-21T13:12:58;23.60;;;21.50;;
1078;SDS011;528;47.872;11.478;2022-07-21T13:15:26;22.00;;;20.00;;
1078;SDS011;528;47.872;11.478;2022-07-21T13:17:53;20.33;;;18.63;;
1078;SDS011;528;47.872;11.478;2022-07-21T13:20:21;22.30;;;20.30;;
1078;SDS011;528;47.872;11.478;2022-07-21T13:22:53;22.27;;;20.27;;
1078;SDS011;528;47.872;11.478;2022-07-21T13:25:26;23.23;;;21.20;;
1078;SDS011;528;47.872;11.478;2022-07-21T13:27:57;23.90;;;21.80;;
1078;SDS011;528;47.872;11.478;2022-07-21T13:30:31;22.60;;;20.57;;
1078;SDS011;528;47.872;11.478;2022-07-21T13:33:01;22.60;;;20.57;;
1078;SDS011;528;47.872;11.478;2022-07-21T13:35:36;24.00;;;21.70;;
1078;SDS011;528;47.872;11.478;2022-07-21T13:38:09;21.53;;;19.73;;
1078;SDS011;528;47.872;11.478;2022-07-21T13:40:42;21.93;;;20.03;;
1078;SDS011;528;47.872;11.478;2022-07-21T13:43:13;22.87;;;20.77;;
1078;SDS011;528;47.872;11.478;2022-07-21T13:45:41;21.80;;;19.90;;
1078;SDS011;528;47.872;11.478;2022-07-21T13:48:13;22.53;;;20.00;;
1078;SDS011;528;47.872;11.478;2022-07-21T13:50:45;21.30;;;19.40;;
1078;SDS011;528;47.872;11.478;2022-07-21T13:53:17;22.27;;;20.20;;
1078;SDS011;528;47.872;11.478;2022-07-21T13:55:47;22.10;;;20.20;;
1078;SDS011;528;47.872;11.478;2022-07-21T13:58:24;22.03;;;20.03;;
1078;SDS011;528;47.872;11.478;2022-07-21T14:01:17;22.73;;;20.73;;
1078;SDS011;528;47.872;11.478;2022-07-21T14:03:51;21.27;;;19.50;;
1078;SDS011;528;47.872;11.478;2022-07-21T14:06:39;22.30;;;20.30;;
1078;SDS011;528;47.872;11.478;2022-07-21T14:09:13;20.67;;;18.87;;
1078;SDS011;528;47.872;11.478;2022-07-21T14:11:43;23.50;;;21.30;;
1078;SDS011;528;47.872;11.478;2022-07-21T14:14:14;21.53;;;19.53;;
1078;SDS011;528;47.872;11.478;2022-07-21T14:16:47;21.63;;;19.73;;
1078;SDS011;528;47.872;11.478;2022-07-21T14:19:18;20.80;;;19.00;;
1078;SDS011;528;47.872;11.478;2022-07-21T14:21:57;22.20;;;20.40;;
1078;SDS011;528;47.872;11.478;2022-07-21T14:24:31;22.13;;;20.23;;
1078;SDS011;528;47.872;11.478;2022-07-21T14:27:21;22.30;;;20.30;;
1078;SDS011;528;47.872;11.478;2022-07-21T14:29:51;23.37;;;21.27;;
1078;SDS011;528;47.872;11.478;2022-07-21T14:32:20;22.13;;;20.10;;
1078;SDS011;528;47.872;11.478;2022-07-21T14:35:01;24.73;;;22.40;;
1078;SDS011;528;47.872;11.478;2022-07-21T14:37:32;22.00;;;20.00;;
1078;SDS011;528;47.872;11.478;2022-07-21T14:40:07;20.60;;;18.70;;
1078;SDS011;528;47.872;11.478;2022-07-21T14:42:38;22.37;;;20.20;;
1078;SDS011;528;47.872;11.478;2022-07-21T14:45:09;21.03;;;19.20;;
1078;SDS011;528;47.872;11.478;2022-07-21T14:47:44;21.33;;;19.47;;
1078;SDS011;528;47.872;11.478;2022-07-21T14:50:21;21.43;;;19.60;;
1078;SDS011;528;47.872;11.478;2022-07-21T14:53:13;22.50;;;20.40;;
1078;SDS011;528;47.872;11.478;2022-07-21T14:56:43;23.30;;;21.20;;
1078;SDS011;528;47.872;11.478;2022-07-21T14:59:20;21.70;;;19.70;;
1078;SDS011;528;47.872;11.478;2022-07-21T15:02:11;22.57;;;20.63;;
1078;SDS011;528;47.872;11.478;2022-07-21T15:04:57;22.93;;;20.93;;
1078;SDS011;528;47.872;11.478;2022-07-21T15:07:32;22.87;;;20.97;;
1078;SDS011;528;47.872;11.478;2022-07-21T15:10:09;22.87;;;20.90;;
1078;SDS011;528;47.872;11.478;2022-07-21T15:13:02;22.13;;;20.23;;
1078;SDS011;528;47.872;11.478;2022-07-21T15:16:13;21.60;;;19.73;;
1078;SDS011;528;47.872;11.478;2022-07-21T15:18:56;22.03;;;20.03;;
1078;SDS011;528;47.872;11.478;2022-07-21T15:22:34;22.90;;;20.80;;
1078;SDS011;528;47.872;11.478;2022-07-21T15:25:42;23.23;;;21.03;;
1078;SDS011;528;47.872;11.478;2022-07-21T15:28:58;23.20;;;21.07;;
1078;SDS011;528;47.872;11.478;2022-07-21T15:31:49;23.97;;;21.87;;
1078;SDS011;528;47.872;11.478;2022-07-21T15:34:29;22.27;;;20.27;;
1078;SDS011;528;47.872;11.478;2022-07-21T15:37:16;23.30;;;21.30;;
1078;SDS011;528;47.872;11.478;2022-07-21T15:40:19;22.73;;;20.70;;
1078;SDS011;528;47.872;11.478;2022-07-21T15:43:10;22.70;;;20.67;;
1078;SDS011;528;47.872;11.478;2022-07-21T15:45:44;20.20;;;18.53;;
1078;SDS011;528;47.872;11.478;2022-07-21T15:48:36;20.90;;;19.23;;
1078;SDS011;528;47.872;11.478;2022-07-21T15:51:25;23.10;;;21.10;;
1078;SDS011;528;47.872;11.478;2022-07-21T15:54:02;22.30;;;20.50;;
1078;SDS011;528;47.872;11.478;2022-07-21T15:56:35;22.83;;;20.83;;
1078;SDS011;528;47.872;11.478;2022-07-21T15:59:25;22.20;;;20.27;;
1078;SDS011;528;47.872;11.478;2022-07-21T16:12:10;21.13;;;19.33;;
1078;SDS011;528;47.872;11.478;2022-07-21T16:14:58;21.63;;;19.80;;
1078;SDS011;528;47.872;11.478;2022-07-21T16:20:56;20.93;;;19.07;;
1078;SDS011;528;47.872;11.478;2022-07-21T16:54:08;20.30;;;18.50;;
1078;SDS011;528;47.872;11.478;2022-07-21T16:57:11;18.50;;;17.00;;
1078;SDS011;528;47.872;11.478;2022-07-21T17:00:04;18.60;;;17.00;;
1078;SDS011;528;47.872;11.478;2022-07-21T17:08:24;19.20;;;17.60;;
1078;SDS011;528;47.872;11.478;2022-07-21T17:15:03;19.17;;;17.37;;
1078;SDS011;528;47.872;11.478;2022-07-21T17:17:47;19.97;;;18.20;;
1078;SDS011;528;47.872;11.478;2022-07-21T17:20:53;18.23;;;16.83;;
1078;SDS011;528;47.872;11.478;2022-07-21T17:26:59;18.83;;;17.23;;
1078;SDS011;528;47.872;11.478;2022-07-21T17:29:31;18.97;;;17.47;;
1078;SDS011;528;47.872;11.478;2022-07-21T17:32:00;17.53;;;16.03;;
1078;SDS011;528;47.872;11.478;2022-07-21T17:34:30;18.07;;;16.50;;
1078;SDS011;528;47.872;11.478;2022-07-21T17:36:57;18.00;;;16.30;;
1078;SDS011;528;47.872;11.478;2022-07-21T17:39:27;17.93;;;16.50;;
1078;SDS011;528;47.872;11.478;2022-07-21T17:41:54;18.67;;;17.27;;
1078;SDS011;528;47.872;11.478;2022-07-21T17:44:24;18.67;;;16.97;;
1078;SDS011;528;47.872;11.478;2022-07-21T17:46:51;18.93;;;17.23;;
1078;SDS011;528;47.872;11.478;2022-07-21T17:49:18;17.80;;;16.40;;
1078;SDS011;528;47.872;11.478;2022-07-21T17:51:46;17.87;;;16.27;;
1078;SDS011;528;47.872;11.478;2022-07-21T17:54:13;18.33;;;16.63;;
1078;SDS011;528;47.872;11.478;2022-07-21T17:56:42;17.20;;;15.67;;
1078;SDS011;528;47.872;11.478;2022-07-21T17:59:09;17.30;;;15.73;;
1078;SDS011;528;47.872;11.478;2022-07-21T18:01:37;17.40;;;15.90;;
1078;SDS011;528;47.872;11.478;2022-07-21T18:04:06;15.77;;;14.57;;
1078;SDS011;528;47.872;11.478;2022-07-21T18:06:33;16.70;;;15.33;;
1078;SDS011;528;47.872;11.478;2022-07-21T18:09:01;16.70;;;15.30;;
1078;SDS011;528;47.872;11.478;2022-07-21T18:11:28;15.73;;;14.47;;
1078;SDS011;528;47.872;11.478;2022-07-21T18:13:55;15.90;;;14.50;;
1078;SDS011;528;47.872;11.478;2022-07-21T18:16:22;15.50;;;14.20;;
1078;SDS011;528;47.872;11.478;2022-07-21T18:18:51;15.30;;;14.00;;
1078;SDS011;528;47.872;11.478;2022-07-21T18:21:18;16.50;;;15.13;;
1078;SDS011;528;47.872;11.478;2022-07-21T18:23:45;15.37;;;14.17;;